sensor_id;sensor_type;location;lat;lon;timestamp;P1;durP1;ratioP1;P2;durP2;ratioP2
11921;SDS011;6021;51.182;3.160;2023-04-02T00:01:36;18.97;;;8.47;;
11921;SDS011;6021;51.182;3.160;2023-04-02T00:04:16;18.10;;;8.10;;
11921;SDS011;6021;51.182;3.160;2023-04-02T00:07:23;16.90;;;8.37;;
11921;SDS011;6021;51.182;3.160;2023-04-02T00:09:49;20.70;;;8.50;;
11921;SDS011;6021;51.182;3.160;2023-04-02T00:12:37;17.40;;;8.30;;
11921;SDS011;6021;51.182;3.160;2023-04-02T00:15:04;19.87;;;7.90;;
11921;SDS011;6021;51.182;3.160;2023-04-02T00:20:17;20.40;;;8.70;;
11921;SDS011;6021;51.182;3.160;2023-04-02T00:22:52;16.20;;;7.57;;
11921;SDS011;6021;51.182;3.160;2023-04-02T00:25:19;18.67;;;6.83;;
11921;SDS011;6021;51.182;3.160;2023-04-02T00:27:57;15.90;;;7.00;;
11921;SDS011;6021;51.182;3.160;2023-04-02T00:30:44;17.53;;;7.97;;
11921;SDS011;6021;51.182;3.160;2023-04-02T00:33:01;17.50;;;9.90;;
11921;SDS011;6021;51.182;3.160;2023-04-02T00:35:35;14.50;;;9.50;;
11921;SDS011;6021;51.182;3.160;2023-04-02T00:38:05;17.77;;;9.77;;
11921;SDS011;6021;51.182;3.160;2023-04-02T00:40:41;17.60;;;9.37;;
11921;SDS011;6021;51.182;3.160;2023-04-02T00:43:13;15.60;;;9.13;;
11921;SDS011;6021;51.182;3.160;2023-04-02T00:45:46;16.50;;;9.90;;
11921;SDS011;6021;51.182;3.160;2023-04-02T00:53:53;16.70;;;10.10;;
11921;SDS011;6021;51.182;3.160;2023-04-02T00:56:59;13.93;;;9.80;;
11921;SDS011;6021;51.182;3.160;2023-04-02T00:59:41;15.97;;;10.63;;
11921;SDS011;6021;51.182;3.160;2023-04-02T01:02:27;15.10;;;11.40;;
11921;SDS011;6021;51.182;3.160;2023-04-02T01:24:28;13.83;;;9.70;;
11921;SDS011;6021;51.182;3.160;2023-04-02T01:27:01;16.53;;;9.30;;
11921;SDS011;6021;51.182;3.160;2023-04-02T01:29:38;15.27;;;10.20;;
11921;SDS011;6021;51.182;3.160;2023-04-02T01:32:06;17.20;;;10.00;;
11921;SDS011;6021;51.182;3.160;2023-04-02T01:37:34;16.40;;;11.47;;
11921;SDS011;6021;51.182;3.160;2023-04-02T01:43:27;15.67;;;10.73;;
11921;SDS011;6021;51.182;3.160;2023-04-02T01:48:56;17.27;;;11.00;;
11921;SDS011;6021;51.182;3.160;2023-04-02T01:54:22;17.33;;;11.17;;
11921;SDS011;6021;51.182;3.160;2023-04-02T01:56:55;16.10;;;11.37;;
11921;SDS011;6021;51.182;3.160;2023-04-02T01:59:36;16.97;;;11.73;;
11921;SDS011;6021;51.182;3.160;2023-04-02T02:02:09;15.70;;;11.87;;
11921;SDS011;6021;51.182;3.160;2023-04-02T02:07:35;16.50;;;10.93;;
11921;SDS011;6021;51.182;3.160;2023-04-02T02:10:21;16.30;;;11.40;;
11921;SDS011;6021;51.182;3.160;2023-04-02T02:12:57;14.97;;;10.57;;
11921;SDS011;6021;51.182;3.160;2023-04-02T02:15:31;18.57;;;12.37;;
11921;SDS011;6021;51.182;3.160;2023-04-02T02:18:05;18.17;;;11.80;;
11921;SDS011;6021;51.182;3.160;2023-04-02T02:20:56;17.70;;;11.67;;
11921;SDS011;6021;51.182;3.160;2023-04-02T02:23:32;16.93;;;11.23;;
11921;SDS011;6021;51.182;3.160;2023-04-02T02:26:06;18.70;;;11.97;;
11921;SDS011;6021;51.182;3.160;2023-04-02T02:31:20;16.67;;;11.97;;
11921;SDS011;6021;51.182;3.160;2023-04-02T02:33:57;21.37;;;12.40;;
11921;SDS011;6021;51.182;3.160;2023-04-02T02:36:44;17.23;;;11.90;;
11921;SDS011;6021;51.182;3.160;2023-04-02T02:39:42;18.33;;;11.70;;
11921;SDS011;6021;51.182;3.160;2023-04-02T02:42:27;14.73;;;11.00;;
11921;SDS011;6021;51.182;3.160;2023-04-02T02:44:57;15.90;;;10.83;;
11921;SDS011;6021;51.182;3.160;2023-04-02T02:47:31;18.77;;;11.23;;
11921;SDS011;6021;51.182;3.160;2023-04-02T02:50:17;15.37;;;10.70;;
11921;SDS011;6021;51.182;3.160;2023-04-02T02:52:52;15.60;;;9.93;;
11921;SDS011;6021;51.182;3.160;2023-04-02T02:55:32;16.90;;;9.87;;
11921;SDS011;6021;51.182;3.160;2023-04-02T03:01:09;17.73;;;10.30;;
11921;SDS011;6021;51.182;3.160;2023-04-02T03:03:43;16.13;;;9.97;;
11921;SDS011;6021;51.182;3.160;2023-04-02T03:06:15;14.87;;;9.60;;
11921;SDS011;6021;51.182;3.160;2023-04-02T03:08:54;17.03;;;10.23;;
11921;SDS011;6021;51.182;3.160;2023-04-02T03:22:59;14.97;;;10.83;;
11921;SDS011;6021;51.182;3.160;2023-04-02T03:26:11;17.13;;;10.10;;
11921;SDS011;6021;51.182;3.160;2023-04-02T03:28:43;17.73;;;10.50;;
11921;SDS011;6021;51.182;3.160;2023-04-02T03:34:07;15.77;;;10.27;;
11921;SDS011;6021;51.182;3.160;2023-04-02T03:39:36;15.70;;;10.17;;
11921;SDS011;6021;51.182;3.160;2023-04-02T03:42:22;13.67;;;10.10;;
11921;SDS011;6021;51.182;3.160;2023-04-02T03:45:15;14.83;;;10.20;;
11921;SDS011;6021;51.182;3.160;2023-04-02T03:53:33;10.70;;;8.93;;
11921;SDS011;6021;51.182;3.160;2023-04-02T03:56:09;13.07;;;8.83;;
11921;SDS011;6021;51.182;3.160;2023-04-02T03:58:45;13.43;;;9.93;;
11921;SDS011;6021;51.182;3.160;2023-04-02T04:06:52;11.00;;;8.60;;
11921;SDS011;6021;51.182;3.160;2023-04-02T04:09:31;13.87;;;8.70;;
11921;SDS011;6021;51.182;3.160;2023-04-02T04:14:57;14.93;;;8.40;;
11921;SDS011;6021;51.182;3.160;2023-04-02T04:23:45;13.33;;;8.80;;
11921;SDS011;6021;51.182;3.160;2023-04-02T04:32:28;12.20;;;7.23;;
11921;SDS011;6021;51.182;3.160;2023-04-02T04:35:14;13.93;;;7.67;;
11921;SDS011;6021;51.182;3.160;2023-04-02T04:37:42;12.73;;;7.37;;
11921;SDS011;6021;51.182;3.160;2023-04-02T04:40:19;10.07;;;7.20;;
11921;SDS011;6021;51.182;3.160;2023-04-02T04:43:14;13.37;;;7.03;;
11921;SDS011;6021;51.182;3.160;2023-04-02T04:45:59;12.47;;;7.60;;
11921;SDS011;6021;51.182;3.160;2023-04-02T04:48:35;13.57;;;7.83;;
11921;SDS011;6021;51.182;3.160;2023-04-02T04:51:32;12.83;;;8.67;;
11921;SDS011;6021;51.182;3.160;2023-04-02T04:53:54;13.73;;;8.60;;
11921;SDS011;6021;51.182;3.160;2023-04-02T04:56:35;11.57;;;7.77;;
11921;SDS011;6021;51.182;3.160;2023-04-02T04:59:20;12.37;;;7.47;;
11921;SDS011;6021;51.182;3.160;2023-04-02T05:05:04;11.33;;;6.70;;
11921;SDS011;6021;51.182;3.160;2023-04-02T05:07:59;12.67;;;6.80;;
11921;SDS011;6021;51.182;3.160;2023-04-02T05:10:48;13.13;;;6.67;;
11921;SDS011;6021;51.182;3.160;2023-04-02T05:16:22;13.17;;;6.57;;
11921;SDS011;6021;51.182;3.160;2023-04-02T05:19:05;13.93;;;7.50;;
11921;SDS011;6021;51.182;3.160;2023-04-02T05:24:36;9.63;;;6.70;;
11921;SDS011;6021;51.182;3.160;2023-04-02T05:27:20;12.67;;;6.90;;
11921;SDS011;6021;51.182;3.160;2023-04-02T05:30:08;9.87;;;6.80;;
11921;SDS011;6021;51.182;3.160;2023-04-02T05:32:48;8.53;;;6.47;;
11921;SDS011;6021;51.182;3.160;2023-04-02T05:35:30;10.13;;;6.23;;
11921;SDS011;6021;51.182;3.160;2023-04-02T05:38:03;14.00;;;5.77;;
11921;SDS011;6021;51.182;3.160;2023-04-02T05:43:14;12.03;;;6.13;;
11921;SDS011;6021;51.182;3.160;2023-04-02T05:45:40;12.43;;;5.50;;
11921;SDS011;6021;51.182;3.160;2023-04-02T05:48:17;12.30;;;5.23;;
11921;SDS011;6021;51.182;3.160;2023-04-02T05:50:51;10.27;;;5.40;;
11921;SDS011;6021;51.182;3.160;2023-04-02T05:59:19;14.40;;;7.07;;
11921;SDS011;6021;51.182;3.160;2023-04-02T06:05:12;12.43;;;6.90;;
11921;SDS011;6021;51.182;3.160;2023-04-02T06:11:01;12.77;;;7.73;;
11921;SDS011;6021;51.182;3.160;2023-04-02T06:13:48;13.63;;;7.73;;
11921;SDS011;6021;51.182;3.160;2023-04-02T06:16:32;11.67;;;8.90;;
11921;SDS011;6021;51.182;3.160;2023-04-02T06:19:10;13.17;;;11.20;;
11921;SDS011;6021;51.182;3.160;2023-04-02T06:21:59;15.93;;;11.70;;
11921;SDS011;6021;51.182;3.160;2023-04-02T06:27:09;17.23;;;13.73;;
11921;SDS011;6021;51.182;3.160;2023-04-02T06:29:57;18.60;;;14.87;;
11921;SDS011;6021;51.182;3.160;2023-04-02T06:32:29;22.77;;;17.20;;
11921;SDS011;6021;51.182;3.160;2023-04-02T06:35:00;18.93;;;17.13;;
11921;SDS011;6021;51.182;3.160;2023-04-02T06:37:36;20.07;;;18.00;;
11921;SDS011;6021;51.182;3.160;2023-04-02T06:43:31;20.20;;;18.20;;
11921;SDS011;6021;51.182;3.160;2023-04-02T06:46:17;20.63;;;18.60;;
11921;SDS011;6021;51.182;3.160;2023-04-02T06:49:46;19.30;;;17.30;;
11921;SDS011;6021;51.182;3.160;2023-04-02T06:51:47;18.17;;;16.47;;
11921;SDS011;6021;51.182;3.160;2023-04-02T06:54:23;18.97;;;17.13;;
11921;SDS011;6021;51.182;3.160;2023-04-02T06:57:05;19.33;;;17.00;;
11921;SDS011;6021;51.182;3.160;2023-04-02T06:59:43;16.43;;;14.73;;
11921;SDS011;6021;51.182;3.160;2023-04-02T07:02:18;16.47;;;14.77;;
11921;SDS011;6021;51.182;3.160;2023-04-02T07:04:46;17.93;;;14.27;;
11921;SDS011;6021;51.182;3.160;2023-04-02T07:07:20;15.93;;;14.40;;
11921;SDS011;6021;51.182;3.160;2023-04-02T07:09:58;15.30;;;13.77;;
11921;SDS011;6021;51.182;3.160;2023-04-02T07:12:40;16.37;;;14.67;;
11921;SDS011;6021;51.182;3.160;2023-04-02T07:15:19;16.27;;;14.57;;
11921;SDS011;6021;51.182;3.160;2023-04-02T07:17:55;17.63;;;15.57;;
11921;SDS011;6021;51.182;3.160;2023-04-02T07:23:07;16.50;;;14.27;;
11921;SDS011;6021;51.182;3.160;2023-04-02T07:25:41;14.97;;;13.47;;
11921;SDS011;6021;51.182;3.160;2023-04-02T07:28:16;14.30;;;12.90;;
11921;SDS011;6021;51.182;3.160;2023-04-02T07:31:07;14.67;;;12.67;;
11921;SDS011;6021;51.182;3.160;2023-04-02T07:33:37;12.63;;;11.33;;
11921;SDS011;6021;51.182;3.160;2023-04-02T07:36:01;12.83;;;11.10;;
11921;SDS011;6021;51.182;3.160;2023-04-02T07:38:33;12.97;;;10.63;;
11921;SDS011;6021;51.182;3.160;2023-04-02T07:41:08;12.33;;;10.53;;
11921;SDS011;6021;51.182;3.160;2023-04-02T07:43:45;13.17;;;10.63;;
11921;SDS011;6021;51.182;3.160;2023-04-02T07:46:25;12.40;;;10.00;;
11921;SDS011;6021;51.182;3.160;2023-04-02T07:49:01;13.73;;;10.63;;
11921;SDS011;6021;51.182;3.160;2023-04-02T07:51:29;12.77;;;10.60;;
11921;SDS011;6021;51.182;3.160;2023-04-02T07:54:08;13.23;;;10.67;;
11921;SDS011;6021;51.182;3.160;2023-04-02T07:56:39;12.43;;;11.13;;
11921;SDS011;6021;51.182;3.160;2023-04-02T07:59:10;13.70;;;11.13;;
11921;SDS011;6021;51.182;3.160;2023-04-02T08:01:46;16.57;;;11.67;;
11921;SDS011;6021;51.182;3.160;2023-04-02T08:04:18;12.40;;;11.10;;
11921;SDS011;6021;51.182;3.160;2023-04-02T08:06:58;13.57;;;11.47;;
11921;SDS011;6021;51.182;3.160;2023-04-02T08:09:44;13.77;;;10.90;;
11921;SDS011;6021;51.182;3.160;2023-04-02T08:12:26;11.67;;;10.47;;
11921;SDS011;6021;51.182;3.160;2023-04-02T08:14:57;11.13;;;10.00;;
11921;SDS011;6021;51.182;3.160;2023-04-02T08:17:44;10.53;;;9.53;;
11921;SDS011;6021;51.182;3.160;2023-04-02T08:23:11;11.23;;;10.13;;
11921;SDS011;6021;51.182;3.160;2023-04-02T08:28:46;10.57;;;9.57;;
11921;SDS011;6021;51.182;3.160;2023-04-02T08:31:13;11.40;;;10.30;;
11921;SDS011;6021;51.182;3.160;2023-04-02T08:33:56;14.10;;;10.20;;
11921;SDS011;6021;51.182;3.160;2023-04-02T08:36:34;10.97;;;10.00;;
11921;SDS011;6021;51.182;3.160;2023-04-02T08:39:10;10.20;;;9.30;;
11921;SDS011;6021;51.182;3.160;2023-04-02T08:47:33;10.50;;;8.83;;
11921;SDS011;6021;51.182;3.160;2023-04-02T08:53:00;9.93;;;8.37;;
11921;SDS011;6021;51.182;3.160;2023-04-02T08:55:38;11.93;;;9.03;;
11921;SDS011;6021;51.182;3.160;2023-04-02T09:01:04;12.93;;;9.20;;
11921;SDS011;6021;51.182;3.160;2023-04-02T09:03:44;11.27;;;8.93;;
11921;SDS011;6021;51.182;3.160;2023-04-02T09:06:26;10.40;;;8.70;;
11921;SDS011;6021;51.182;3.160;2023-04-02T09:09:08;10.87;;;8.50;;
11921;SDS011;6021;51.182;3.160;2023-04-02T09:11:56;13.07;;;8.80;;
11921;SDS011;6021;51.182;3.160;2023-04-02T09:17:35;12.17;;;9.97;;
11921;SDS011;6021;51.182;3.160;2023-04-02T09:20:24;11.27;;;9.03;;
11921;SDS011;6021;51.182;3.160;2023-04-02T09:22:47;12.60;;;9.43;;
11921;SDS011;6021;51.182;3.160;2023-04-02T09:25:19;10.47;;;9.47;;
11921;SDS011;6021;51.182;3.160;2023-04-02T09:27:49;10.70;;;9.60;;
11921;SDS011;6021;51.182;3.160;2023-04-02T09:33:00;10.73;;;9.63;;
11921;SDS011;6021;51.182;3.160;2023-04-02T09:35:31;10.57;;;9.47;;
11921;SDS011;6021;51.182;3.160;2023-04-02T09:40:42;12.30;;;10.10;;
11921;SDS011;6021;51.182;3.160;2023-04-02T09:43:16;10.90;;;9.83;;
11921;SDS011;6021;51.182;3.160;2023-04-02T09:48:53;10.57;;;8.87;;
11921;SDS011;6021;51.182;3.160;2023-04-02T09:51:30;12.40;;;8.67;;
11921;SDS011;6021;51.182;3.160;2023-04-02T09:56:57;11.23;;;8.97;;
11921;SDS011;6021;51.182;3.160;2023-04-02T09:59:30;11.43;;;8.80;;
11921;SDS011;6021;51.182;3.160;2023-04-02T10:01:59;8.90;;;8.00;;
11921;SDS011;6021;51.182;3.160;2023-04-02T10:07:31;10.20;;;8.67;;
11921;SDS011;6021;51.182;3.160;2023-04-02T10:16:07;11.60;;;9.43;;
11921;SDS011;6021;51.182;3.160;2023-04-02T10:18:45;10.57;;;8.73;;
11921;SDS011;6021;51.182;3.160;2023-04-02T10:21:22;11.10;;;9.30;;
11921;SDS011;6021;51.182;3.160;2023-04-02T10:23:53;11.03;;;9.10;;
11921;SDS011;6021;51.182;3.160;2023-04-02T10:26:30;10.47;;;9.37;;
11921;SDS011;6021;51.182;3.160;2023-04-02T10:34:31;14.40;;;10.37;;
11921;SDS011;6021;51.182;3.160;2023-04-02T10:36:58;9.30;;;8.30;;
11921;SDS011;6021;51.182;3.160;2023-04-02T10:39:48;10.80;;;7.53;;
11921;SDS011;6021;51.182;3.160;2023-04-02T10:48:18;9.47;;;7.77;;
11921;SDS011;6021;51.182;3.160;2023-04-02T10:51:23;7.90;;;7.10;;
11921;SDS011;6021;51.182;3.160;2023-04-02T10:57:06;7.50;;;6.03;;
11921;SDS011;6021;51.182;3.160;2023-04-02T10:59:39;8.40;;;6.43;;
11921;SDS011;6021;51.182;3.160;2023-04-02T11:02:28;6.70;;;6.00;;
11921;SDS011;6021;51.182;3.160;2023-04-02T11:05:00;7.00;;;6.30;;
11921;SDS011;6021;51.182;3.160;2023-04-02T11:07:31;6.50;;;5.80;;
11921;SDS011;6021;51.182;3.160;2023-04-02T11:10:01;5.87;;;5.20;;
11921;SDS011;6021;51.182;3.160;2023-04-02T11:15:19;5.97;;;4.83;;
11921;SDS011;6021;51.182;3.160;2023-04-02T11:17:45;5.63;;;5.00;;
11921;SDS011;6021;51.182;3.160;2023-04-02T11:23:16;4.67;;;4.07;;
11921;SDS011;6021;51.182;3.160;2023-04-02T11:25:40;5.47;;;3.83;;
11921;SDS011;6021;51.182;3.160;2023-04-02T11:28:13;3.93;;;3.57;;
11921;SDS011;6021;51.182;3.160;2023-04-02T11:30:53;4.33;;;3.93;;
11921;SDS011;6021;51.182;3.160;2023-04-02T11:33:24;3.93;;;3.50;;
11921;SDS011;6021;51.182;3.160;2023-04-02T11:36:00;4.23;;;3.10;;
11921;SDS011;6021;51.182;3.160;2023-04-02T11:38:47;3.30;;;3.00;;
11921;SDS011;6021;51.182;3.160;2023-04-02T11:41:26;3.50;;;3.20;;
11921;SDS011;6021;51.182;3.160;2023-04-02T11:44:02;3.50;;;3.00;;
11921;SDS011;6021;51.182;3.160;2023-04-02T11:46:38;4.50;;;3.50;;
11921;SDS011;6021;51.182;3.160;2023-04-02T11:52:02;4.43;;;3.97;;
11921;SDS011;6021;51.182;3.160;2023-04-02T11:54:33;4.43;;;4.03;;
11921;SDS011;6021;51.182;3.160;2023-04-02T12:02:28;4.70;;;4.20;;
11921;SDS011;6021;51.182;3.160;2023-04-02T12:07:56;4.90;;;4.30;;
11921;SDS011;6021;51.182;3.160;2023-04-02T12:10:53;4.40;;;3.77;;
11921;SDS011;6021;51.182;3.160;2023-04-02T12:16:14;4.80;;;4.40;;
11921;SDS011;6021;51.182;3.160;2023-04-02T12:18:59;5.03;;;4.13;;
11921;SDS011;6021;51.182;3.160;2023-04-02T12:21:36;4.70;;;4.30;;
11921;SDS011;6021;51.182;3.160;2023-04-02T12:24:18;4.97;;;4.40;;
11921;SDS011;6021;51.182;3.160;2023-04-02T12:27:09;5.20;;;4.70;;
11921;SDS011;6021;51.182;3.160;2023-04-02T12:30:31;6.07;;;4.37;;
11921;SDS011;6021;51.182;3.160;2023-04-02T12:32:41;5.00;;;4.60;;
11921;SDS011;6021;51.182;3.160;2023-04-02T12:35:26;5.40;;;4.90;;
11921;SDS011;6021;51.182;3.160;2023-04-02T12:38:01;4.97;;;4.50;;
11921;SDS011;6021;51.182;3.160;2023-04-02T12:40:29;6.20;;;4.90;;
11921;SDS011;6021;51.182;3.160;2023-04-02T12:42:58;5.80;;;4.90;;
11921;SDS011;6021;51.182;3.160;2023-04-02T12:45:31;5.77;;;4.83;;
11921;SDS011;6021;51.182;3.160;2023-04-02T12:48:00;6.03;;;5.40;;
11921;SDS011;6021;51.182;3.160;2023-04-02T12:50:31;5.77;;;4.97;;
11921;SDS011;6021;51.182;3.160;2023-04-02T12:53:00;5.73;;;5.23;;
11921;SDS011;6021;51.182;3.160;2023-04-02T12:55:30;5.90;;;5.00;;
11921;SDS011;6021;51.182;3.160;2023-04-02T12:58:00;6.00;;;5.50;;
11921;SDS011;6021;51.182;3.160;2023-04-02T13:00:29;6.50;;;5.90;;
11921;SDS011;6021;51.182;3.160;2023-04-02T13:03:00;6.20;;;5.70;;
11921;SDS011;6021;51.182;3.160;2023-04-02T13:05:47;6.80;;;6.20;;
11921;SDS011;6021;51.182;3.160;2023-04-02T13:08:18;7.33;;;6.27;;
11921;SDS011;6021;51.182;3.160;2023-04-02T13:10:54;7.13;;;6.43;;
11921;SDS011;6021;51.182;3.160;2023-04-02T13:13:25;7.43;;;6.73;;
11921;SDS011;6021;51.182;3.160;2023-04-02T13:18:46;6.83;;;6.33;;
11921;SDS011;6021;51.182;3.160;2023-04-02T13:23:55;7.20;;;6.53;;
11921;SDS011;6021;51.182;3.160;2023-04-02T13:26:27;7.70;;;6.90;;
11921;SDS011;6021;51.182;3.160;2023-04-02T13:31:33;7.40;;;6.63;;
11921;SDS011;6021;51.182;3.160;2023-04-02T13:34:02;7.60;;;6.90;;
11921;SDS011;6021;51.182;3.160;2023-04-02T13:36:32;7.53;;;6.77;;
11921;SDS011;6021;51.182;3.160;2023-04-02T13:39:03;7.57;;;6.73;;
11921;SDS011;6021;51.182;3.160;2023-04-02T13:41:39;6.77;;;6.17;;
11921;SDS011;6021;51.182;3.160;2023-04-02T13:44:19;4.83;;;4.43;;
11921;SDS011;6021;51.182;3.160;2023-04-02T13:46:54;4.37;;;4.00;;
11921;SDS011;6021;51.182;3.160;2023-04-02T13:49:44;5.10;;;4.70;;
11921;SDS011;6021;51.182;3.160;2023-04-02T13:52:16;5.00;;;4.60;;
11921;SDS011;6021;51.182;3.160;2023-04-02T13:54:55;5.50;;;5.03;;
11921;SDS011;6021;51.182;3.160;2023-04-02T13:57:30;5.63;;;5.20;;
11921;SDS011;6021;51.182;3.160;2023-04-02T14:00:06;5.70;;;5.20;;
11921;SDS011;6021;51.182;3.160;2023-04-02T14:02:47;6.07;;;5.47;;
11921;SDS011;6021;51.182;3.160;2023-04-02T14:11:45;4.80;;;4.40;;
11921;SDS011;6021;51.182;3.160;2023-04-02T14:23:16;5.23;;;4.30;;
11921;SDS011;6021;51.182;3.160;2023-04-02T14:37:10;5.23;;;4.73;;
11921;SDS011;6021;51.182;3.160;2023-04-02T14:39:44;5.30;;;4.80;;
11921;SDS011;6021;51.182;3.160;2023-04-02T14:42:23;4.80;;;4.40;;
11921;SDS011;6021;51.182;3.160;2023-04-02T14:44:59;5.07;;;4.57;;
11921;SDS011;6021;51.182;3.160;2023-04-02T14:47:32;4.83;;;4.33;;
11921;SDS011;6021;51.182;3.160;2023-04-02T14:50:09;5.43;;;4.70;;
11921;SDS011;6021;51.182;3.160;2023-04-02T14:52:46;5.00;;;4.60;;
11921;SDS011;6021;51.182;3.160;2023-04-02T14:57:54;5.80;;;5.30;;
11921;SDS011;6021;51.182;3.160;2023-04-02T15:03:10;6.50;;;4.63;;
11921;SDS011;6021;51.182;3.160;2023-04-02T15:05:46;5.07;;;4.57;;
11921;SDS011;6021;51.182;3.160;2023-04-02T15:08:32;5.10;;;4.60;;
11921;SDS011;6021;51.182;3.160;2023-04-02T15:11:03;6.20;;;4.77;;
11921;SDS011;6021;51.182;3.160;2023-04-02T15:13:56;5.37;;;4.67;;
11921;SDS011;6021;51.182;3.160;2023-04-02T15:16:24;4.97;;;4.47;;
11921;SDS011;6021;51.182;3.160;2023-04-02T15:18:56;5.87;;;4.80;;
11921;SDS011;6021;51.182;3.160;2023-04-02T15:29:59;5.20;;;4.40;;
11921;SDS011;6021;51.182;3.160;2023-04-02T15:35:26;6.40;;;4.73;;
11921;SDS011;6021;51.182;3.160;2023-04-02T15:40:47;8.07;;;4.53;;
11921;SDS011;6021;51.182;3.160;2023-04-02T15:43:27;5.43;;;4.40;;
11921;SDS011;6021;51.182;3.160;2023-04-02T15:57:12;6.03;;;4.70;;
11921;SDS011;6021;51.182;3.160;2023-04-02T16:02:52;7.20;;;4.63;;
11921;SDS011;6021;51.182;3.160;2023-04-02T16:11:09;5.63;;;3.70;;
11921;SDS011;6021;51.182;3.160;2023-04-02T16:13:40;6.40;;;3.43;;
11921;SDS011;6021;51.182;3.160;2023-04-02T16:16:24;5.17;;;3.37;;
11921;SDS011;6021;51.182;3.160;2023-04-02T16:19:06;4.70;;;3.13;;
11921;SDS011;6021;51.182;3.160;2023-04-02T16:21:46;5.03;;;4.53;;
11921;SDS011;6021;51.182;3.160;2023-04-02T16:24:17;5.60;;;4.40;;
11921;SDS011;6021;51.182;3.160;2023-04-02T16:27:33;5.23;;;4.50;;
11921;SDS011;6021;51.182;3.160;2023-04-02T16:34:46;4.50;;;4.10;;
11921;SDS011;6021;51.182;3.160;2023-04-02T16:37:19;6.27;;;3.93;;
11921;SDS011;6021;51.182;3.160;2023-04-02T16:40:09;6.67;;;4.80;;
11921;SDS011;6021;51.182;3.160;2023-04-02T16:42:56;6.27;;;4.90;;
11921;SDS011;6021;51.182;3.160;2023-04-02T16:53:46;5.20;;;4.70;;
11921;SDS011;6021;51.182;3.160;2023-04-02T16:58:58;5.07;;;4.57;;
11921;SDS011;6021;51.182;3.160;2023-04-02T17:07:26;5.67;;;4.70;;
11921;SDS011;6021;51.182;3.160;2023-04-02T17:10:03;4.20;;;3.80;;
11921;SDS011;6021;51.182;3.160;2023-04-02T17:12:46;5.43;;;4.40;;
11921;SDS011;6021;51.182;3.160;2023-04-02T17:15:21;4.67;;;4.17;;
11921;SDS011;6021;51.182;3.160;2023-04-02T17:17:52;5.00;;;4.00;;
11921;SDS011;6021;51.182;3.160;2023-04-02T17:20:23;5.50;;;4.40;;
11921;SDS011;6021;51.182;3.160;2023-04-02T17:22:53;7.27;;;4.60;;
11921;SDS011;6021;51.182;3.160;2023-04-02T17:25:26;5.47;;;4.20;;
11921;SDS011;6021;51.182;3.160;2023-04-02T17:27:56;6.57;;;4.50;;
11921;SDS011;6021;51.182;3.160;2023-04-02T17:33:13;4.90;;;3.50;;
11921;SDS011;6021;51.182;3.160;2023-04-02T17:38:23;4.97;;;3.00;;
11921;SDS011;6021;51.182;3.160;2023-04-02T17:49:30;7.43;;;3.00;;
11921;SDS011;6021;51.182;3.160;2023-04-02T17:52:04;5.87;;;2.37;;
11921;SDS011;6021;51.182;3.160;2023-04-02T17:57:29;5.70;;;2.57;;
11921;SDS011;6021;51.182;3.160;2023-04-02T18:00:13;4.73;;;2.50;;
11921;SDS011;6021;51.182;3.160;2023-04-02T18:02:53;5.23;;;2.53;;
11921;SDS011;6021;51.182;3.160;2023-04-02T18:16:41;6.50;;;2.90;;
11921;SDS011;6021;51.182;3.160;2023-04-02T18:19:16;7.47;;;3.00;;
11921;SDS011;6021;51.182;3.160;2023-04-02T18:27:57;5.00;;;2.60;;
11921;SDS011;6021;51.182;3.160;2023-04-02T18:36:51;6.40;;;2.50;;
11921;SDS011;6021;51.182;3.160;2023-04-02T18:50:33;7.30;;;2.70;;
11921;SDS011;6021;51.182;3.160;2023-04-02T18:56:00;7.17;;;2.53;;
11921;SDS011;6021;51.182;3.160;2023-04-02T19:01:42;7.57;;;2.90;;
11921;SDS011;6021;51.182;3.160;2023-04-02T19:04:13;5.47;;;2.53;;
11921;SDS011;6021;51.182;3.160;2023-04-02T19:06:44;2.93;;;2.17;;
11921;SDS011;6021;51.182;3.160;2023-04-02T19:09:19;5.03;;;2.70;;
11921;SDS011;6021;51.182;3.160;2023-04-02T19:11:49;5.30;;;2.70;;
11921;SDS011;6021;51.182;3.160;2023-04-02T19:14:19;4.83;;;2.70;;
11921;SDS011;6021;51.182;3.160;2023-04-02T19:19:45;4.10;;;2.30;;
11921;SDS011;6021;51.182;3.160;2023-04-02T19:22:44;5.37;;;2.47;;
11921;SDS011;6021;51.182;3.160;2023-04-02T19:25:33;6.40;;;2.87;;
11921;SDS011;6021;51.182;3.160;2023-04-02T19:36:12;6.20;;;2.70;;
11921;SDS011;6021;51.182;3.160;2023-04-02T19:41:19;5.10;;;2.67;;
11921;SDS011;6021;51.182;3.160;2023-04-02T19:44:03;4.40;;;2.30;;
11921;SDS011;6021;51.182;3.160;2023-04-02T19:46:39;5.00;;;2.60;;
11921;SDS011;6021;51.182;3.160;2023-04-02T19:51:42;4.00;;;2.40;;
11921;SDS011;6021;51.182;3.160;2023-04-02T19:54:11;3.20;;;2.40;;
11921;SDS011;6021;51.182;3.160;2023-04-02T19:56:39;4.77;;;2.60;;
11921;SDS011;6021;51.182;3.160;2023-04-02T19:59:09;5.17;;;2.60;;
11921;SDS011;6021;51.182;3.160;2023-04-02T20:01:37;5.17;;;2.73;;
11921;SDS011;6021;51.182;3.160;2023-04-02T20:04:06;7.87;;;3.20;;
11921;SDS011;6021;51.182;3.160;2023-04-02T20:06:34;5.93;;;2.90;;
11921;SDS011;6021;51.182;3.160;2023-04-02T20:09:03;6.73;;;3.00;;
11921;SDS011;6021;51.182;3.160;2023-04-02T20:11:34;4.37;;;2.60;;
11921;SDS011;6021;51.182;3.160;2023-04-02T20:14:09;4.30;;;2.60;;
11921;SDS011;6021;51.182;3.160;2023-04-02T20:16:41;4.80;;;2.50;;
11921;SDS011;6021;51.182;3.160;2023-04-02T20:19:12;4.70;;;2.60;;
11921;SDS011;6021;51.182;3.160;2023-04-02T20:21:46;4.67;;;2.60;;
11921;SDS011;6021;51.182;3.160;2023-04-02T20:24:19;5.20;;;2.90;;
11921;SDS011;6021;51.182;3.160;2023-04-02T20:26:47;4.43;;;2.93;;
11921;SDS011;6021;51.182;3.160;2023-04-02T20:29:15;5.10;;;2.90;;
11921;SDS011;6021;51.182;3.160;2023-04-02T20:31:44;3.23;;;2.53;;
11921;SDS011;6021;51.182;3.160;2023-04-02T20:34:12;5.10;;;3.00;;
11921;SDS011;6021;51.182;3.160;2023-04-02T20:36:40;5.07;;;3.00;;
11921;SDS011;6021;51.182;3.160;2023-04-02T20:39:10;4.67;;;3.40;;
11921;SDS011;6021;51.182;3.160;2023-04-02T20:41:40;4.73;;;2.97;;
11921;SDS011;6021;51.182;3.160;2023-04-02T20:44:08;5.53;;;3.20;;
11921;SDS011;6021;51.182;3.160;2023-04-02T20:46:38;7.10;;;2.93;;
11921;SDS011;6021;51.182;3.160;2023-04-02T20:49:07;4.83;;;2.93;;
11921;SDS011;6021;51.182;3.160;2023-04-02T20:51:35;6.37;;;3.00;;
11921;SDS011;6021;51.182;3.160;2023-04-02T20:54:03;4.50;;;2.93;;
11921;SDS011;6021;51.182;3.160;2023-04-02T20:56:32;7.60;;;3.30;;
11921;SDS011;6021;51.182;3.160;2023-04-02T20:59:00;4.60;;;3.27;;
11921;SDS011;6021;51.182;3.160;2023-04-02T21:01:29;5.00;;;3.57;;
11921;SDS011;6021;51.182;3.160;2023-04-02T21:03:58;5.57;;;3.13;;
11921;SDS011;6021;51.182;3.160;2023-04-02T21:06:29;4.63;;;3.07;;
11921;SDS011;6021;51.182;3.160;2023-04-02T21:08:59;5.80;;;3.23;;
11921;SDS011;6021;51.182;3.160;2023-04-02T21:11:28;5.80;;;3.30;;
11921;SDS011;6021;51.182;3.160;2023-04-02T21:13:57;7.90;;;3.60;;
11921;SDS011;6021;51.182;3.160;2023-04-02T21:16:25;5.87;;;3.20;;
11921;SDS011;6021;51.182;3.160;2023-04-02T21:19:00;5.07;;;3.13;;
11921;SDS011;6021;51.182;3.160;2023-04-02T21:21:28;5.03;;;3.10;;
11921;SDS011;6021;51.182;3.160;2023-04-02T21:23:57;5.87;;;3.47;;
11921;SDS011;6021;51.182;3.160;2023-04-02T21:26:28;4.17;;;3.13;;
11921;SDS011;6021;51.182;3.160;2023-04-02T21:28:57;5.77;;;3.40;;
11921;SDS011;6021;51.182;3.160;2023-04-02T21:31:27;4.90;;;3.47;;
11921;SDS011;6021;51.182;3.160;2023-04-02T21:33:57;4.37;;;3.30;;
11921;SDS011;6021;51.182;3.160;2023-04-02T21:36:27;5.20;;;3.67;;
11921;SDS011;6021;51.182;3.160;2023-04-02T21:38:57;7.40;;;4.27;;
11921;SDS011;6021;51.182;3.160;2023-04-02T21:41:34;5.53;;;3.80;;
11921;SDS011;6021;51.182;3.160;2023-04-02T21:44:01;4.63;;;3.50;;
11921;SDS011;6021;51.182;3.160;2023-04-02T21:46:33;5.50;;;3.57;;
11921;SDS011;6021;51.182;3.160;2023-04-02T21:49:01;6.00;;;4.00;;
11921;SDS011;6021;51.182;3.160;2023-04-02T21:51:31;5.33;;;3.43;;